Amelia, Ohio
Current Conditions -  °F | °C
As of 11:53 AM on Thursday 27 Nov 2014 (Local Time) from KLUK Reporting Station
Overcast Overcast  
Wind Chill: 29°   Ceiling: 3500
Heat Index: 35°   Visibility: 10mi
Dew Point: 21°   Wind: 8mph
Humidity: 57%   Direction: 310°NW
Pressure: 30.31"   Gusts: NA
Location:  39.03°N, 84.22°W
Report Text: KLUK 271653Z 31007KT 270V350 10SM BKN035 OVC043 02/M06 A3031 RMK AO2 SLP266 T00171061
Loading
Personal Weather Stations






























Interactive Weather Map New forecast layout! Learn more

10-Day Weather Forecast

Advertisements
Track Severe Weather on mobile